Speed, Indiana
Current Conditions -  °F | °C
As of 1:34 AM on Tuesday 21 Oct 2014 (Local Time) from KLOU Reporting Station
Clear Clear  
Wind Chill: 50°   Ceiling: Unl
Heat Index: 50°   Visibility: 8mi
Dew Point: 49°   Wind: 3mph
Humidity: 96%   Direction: 290°WNW
Pressure: 29.95"   Gusts: NA
Location:  38.3931°N, 85.7713°W
Report Text: KLOU 210534Z 29003KT 8SM CLR 10/09 A2995 RMK AO2 T01000094
Loading
Personal Weather Stations






























Interactive Weather Map
Tropical Storm Tracking
New forecast layout! Learn more

10-Day Weather Forecast

Advertisements
Track Severe Weather on mobile